createdAt,value
2023-05-08T00:00:43.229Z,7.50
2023-05-08T00:03:11.215Z,8.10
2023-05-08T00:05:39.160Z,8.00
2023-05-08T00:08:07.379Z,8.00
2023-05-08T00:10:36.841Z,7.70
2023-05-08T00:13:04.773Z,8.00
2023-05-08T00:15:32.769Z,8.00
2023-05-08T00:18:01.033Z,8.00
2023-05-08T00:20:29.100Z,7.90
2023-05-08T00:22:57.803Z,7.90
2023-05-08T00:25:26.061Z,7.90
2023-05-08T00:27:55.332Z,7.80
2023-05-08T00:30:23.757Z,7.80
2023-05-08T00:32:51.757Z,7.80
2023-05-08T00:35:19.990Z,7.60
2023-05-08T00:37:47.894Z,7.70
2023-05-08T00:40:16.113Z,7.40
2023-05-08T00:42:44.076Z,7.70
2023-05-08T00:45:13.666Z,7.70
2023-05-08T00:47:42.174Z,7.70
2023-05-08T00:50:11.867Z,7.60
2023-05-08T00:52:40.297Z,7.60
2023-05-08T00:55:08.977Z,7.60
2023-05-08T00:57:37.834Z,7.60
2023-05-08T01:00:07.580Z,7.60
2023-05-08T01:02:37.399Z,7.60
2023-05-08T01:05:05.940Z,7.50
2023-05-08T01:07:34.149Z,7.50
2023-05-08T01:10:02.280Z,7.50
2023-05-08T01:12:42.193Z,7.50
2023-05-08T01:15:16.820Z,8.10
2023-05-08T01:17:58.647Z,7.40
2023-05-08T01:20:36.647Z,7.90
2023-05-08T01:23:43.934Z,6.90
2023-05-08T01:26:51.362Z,7.40
2023-05-08T01:29:44.219Z,7.40
2023-05-08T01:32:21.662Z,7.40
2023-05-08T01:34:59.971Z,7.40
2023-05-08T01:37:33.647Z,7.40
2023-05-08T01:40:10.646Z,7.00
2023-05-08T01:42:49.203Z,7.30
2023-05-08T01:45:23.396Z,7.30
2023-05-08T01:48:01.495Z,7.40
2023-05-08T01:50:35.314Z,7.30
2023-05-08T01:53:09.300Z,7.30
2023-05-08T01:55:38.899Z,7.00
2023-05-08T01:58:10.559Z,7.20
2023-05-08T02:00:41.618Z,7.00
2023-05-08T02:03:13.047Z,8.00
2023-05-08T02:05:42.331Z,8.10
2023-05-08T02:08:12.719Z,7.20
2023-05-08T02:10:41.434Z,7.10
2023-05-08T02:13:11.095Z,7.10
2023-05-08T02:15:40.903Z,7.10
2023-05-08T02:18:10.972Z,7.10
2023-05-08T02:20:40.474Z,6.70
2023-05-08T02:23:09.576Z,7.00
2023-05-08T02:25:38.616Z,8.40
2023-05-08T02:28:08.485Z,7.00
2023-05-08T02:30:37.114Z,7.00
2023-05-08T02:33:06.913Z,7.10
2023-05-08T02:35:38.061Z,6.50
2023-05-08T02:38:10.591Z,6.50
2023-05-08T02:40:42.382Z,7.00
2023-05-08T02:43:10.289Z,8.20
2023-05-08T02:45:44.400Z,6.80
2023-05-08T02:48:17.302Z,7.00
2023-05-08T02:50:55.776Z,7.00
2023-05-08T02:53:27.471Z,7.00
2023-05-08T02:56:01.083Z,7.00
2023-05-08T02:58:43.787Z,6.90
2023-05-08T03:01:20.506Z,6.90
2023-05-08T03:03:57.486Z,7.00
2023-05-08T03:06:28.043Z,8.50
2023-05-08T03:09:01.272Z,5.90
2023-05-08T03:11:37.881Z,7.30
2023-05-08T03:14:09.874Z,6.90
2023-05-08T03:16:39.170Z,6.90
2023-05-08T03:19:11.102Z,6.90
2023-05-08T03:21:44.104Z,7.00
2023-05-08T03:24:13.631Z,6.80
2023-05-08T03:26:41.685Z,6.80
2023-05-08T03:29:10.069Z,7.20
2023-05-08T03:31:38.949Z,6.80
2023-05-08T03:34:09.471Z,7.00
2023-05-08T03:36:37.389Z,6.70
2023-05-08T03:39:07.595Z,6.50
2023-05-08T03:41:35.861Z,6.10
2023-05-08T03:44:04.682Z,8.30
2023-05-08T03:46:32.781Z,7.40
2023-05-08T03:49:03.633Z,6.60
2023-05-08T03:51:32.618Z,6.60
2023-05-08T03:54:00.902Z,6.40
2023-05-08T03:56:30.677Z,6.60
2023-05-08T03:59:05.760Z,6.60
2023-05-08T04:01:40.745Z,7.30
2023-05-08T04:04:13.068Z,6.70
2023-05-08T04:06:49.965Z,6.80
2023-05-08T04:09:21.576Z,6.60
2023-05-08T04:12:00.241Z,7.30
2023-05-08T04:14:33.036Z,7.40
2023-05-08T04:17:04.801Z,7.20
2023-05-08T04:19:37.036Z,6.60
2023-05-08T04:22:07.953Z,6.70
2023-05-08T04:24:40.113Z,6.70
2023-05-08T04:27:11.182Z,6.70
2023-05-08T04:29:39.636Z,6.70
2023-05-08T04:32:08.668Z,7.10
2023-05-08T04:34:37.120Z,6.80
2023-05-08T04:37:07.373Z,6.90
2023-05-08T04:39:35.400Z,6.80
2023-05-08T04:42:04.743Z,6.90
2023-05-08T04:44:34.007Z,6.90
2023-05-08T04:47:01.877Z,7.80
2023-05-08T04:49:29.792Z,7.10
2023-05-08T04:51:57.727Z,8.70
2023-05-08T04:54:25.682Z,7.30
2023-05-08T04:56:53.599Z,7.60
2023-05-08T04:59:21.457Z,7.40
2023-05-08T05:01:50.769Z,7.70
2023-05-08T05:04:18.680Z,7.90
2023-05-08T05:06:46.572Z,8.10
2023-05-08T05:09:14.463Z,8.30
2023-05-08T05:11:42.392Z,8.50
2023-05-08T05:14:10.274Z,8.50
2023-05-08T05:16:38.290Z,8.70
2023-05-08T05:19:07.547Z,8.70
2023-05-08T05:21:37.725Z,9.10
2023-05-08T05:24:06.502Z,10.00
2023-05-08T05:26:35.754Z,10.00
2023-05-08T05:29:04.747Z,10.00
2023-05-08T05:31:33.021Z,10.60
2023-05-08T05:34:02.940Z,11.30
2023-05-08T05:36:32.153Z,11.10
2023-05-08T05:39:00.045Z,11.70
2023-05-08T05:41:27.974Z,10.90
2023-05-08T05:43:55.851Z,12.00
2023-05-08T05:46:28.019Z,13.50
2023-05-08T05:48:55.944Z,13.00
2023-05-08T05:51:23.787Z,12.80
2023-05-08T05:53:53.026Z,13.90
2023-05-08T05:56:21.511Z,13.30
2023-05-08T05:58:49.433Z,14.50
2023-05-08T06:01:17.355Z,13.80
2023-05-08T06:03:45.305Z,13.90
2023-05-08T06:06:13.272Z,12.90
2023-05-08T06:08:41.129Z,13.80
2023-05-08T06:11:10.354Z,15.00
2023-05-08T06:13:40.565Z,14.40
2023-05-08T06:16:09.182Z,15.10
2023-05-08T06:18:37.050Z,14.70
2023-05-08T06:21:05.313Z,15.40
2023-05-08T06:23:33.206Z,15.40
2023-05-08T06:26:01.170Z,15.50
2023-05-08T06:28:30.435Z,15.40
2023-05-08T06:30:58.312Z,15.60
2023-05-08T06:33:27.030Z,16.30
2023-05-08T06:35:55.165Z,16.10
2023-05-08T06:38:23.095Z,16.50
2023-05-08T06:40:51.043Z,16.40
2023-05-08T06:43:19.019Z,16.30
2023-05-08T06:45:48.306Z,17.00
2023-05-08T06:48:16.241Z,16.40
2023-05-08T06:50:44.172Z,16.30
2023-05-08T06:53:12.043Z,16.20
2023-05-08T06:55:39.941Z,16.70
2023-05-08T06:58:08.106Z,16.20
2023-05-08T07:00:36.105Z,16.50
2023-05-08T07:03:05.497Z,16.60
2023-05-08T07:05:33.517Z,16.20
2023-05-08T07:08:01.381Z,17.20
2023-05-08T07:10:29.339Z,16.50
2023-05-08T07:12:57.477Z,16.70
2023-05-08T07:15:26.796Z,16.40
2023-05-08T07:17:55.254Z,16.80
2023-05-08T07:20:24.967Z,17.20
2023-05-08T07:22:52.902Z,17.50
2023-05-08T07:25:21.435Z,17.70
2023-05-08T07:27:49.329Z,18.20
2023-05-08T07:30:17.398Z,17.60
2023-05-08T07:32:45.365Z,17.70
2023-05-08T07:35:13.749Z,17.60
2023-05-08T07:37:43.086Z,17.90
2023-05-08T07:40:11.585Z,18.20
2023-05-08T07:42:41.149Z,18.40
2023-05-08T07:45:10.602Z,18.50
2023-05-08T07:47:38.719Z,18.80
2023-05-08T07:50:07.650Z,18.90
2023-05-08T07:52:35.510Z,18.60
2023-05-08T07:55:05.233Z,18.40
2023-05-08T07:57:38.004Z,18.50
2023-05-08T08:00:07.322Z,18.80
2023-05-08T08:02:35.427Z,18.90
2023-05-08T08:05:03.519Z,19.10
2023-05-08T08:07:32.616Z,19.00
2023-05-08T08:10:09.937Z,18.80
2023-05-08T08:12:38.133Z,18.70
2023-05-08T08:15:07.068Z,18.90
2023-05-08T08:17:35.233Z,18.40
2023-05-08T08:20:03.319Z,18.40
2023-05-08T08:22:31.184Z,18.30
2023-05-08T08:24:59.070Z,18.50
2023-05-08T08:27:28.276Z,18.60
2023-05-08T08:30:04.927Z,19.00
2023-05-08T08:32:41.257Z,19.10
2023-05-08T08:35:10.346Z,18.90
2023-05-08T08:37:38.357Z,18.90
2023-05-08T08:40:07.569Z,19.00
2023-05-08T08:42:36.967Z,19.10
2023-05-08T08:45:06.706Z,19.20
2023-05-08T08:47:38.318Z,18.80
2023-05-08T08:50:09.513Z,18.90
2023-05-08T08:52:44.560Z,18.90
2023-05-08T08:55:16.389Z,19.10
2023-05-08T08:57:53.794Z,19.20
2023-05-08T09:00:23.409Z,19.20
2023-05-08T09:02:51.802Z,19.30
2023-05-08T09:05:19.926Z,19.60
2023-05-08T09:07:48.660Z,19.50
2023-05-08T09:10:16.698Z,19.70
2023-05-08T09:12:45.982Z,19.90
2023-05-08T09:15:14.161Z,20.40
2023-05-08T09:17:42.417Z,20.20
2023-05-08T09:20:12.165Z,20.20
2023-05-08T09:22:40.577Z,20.00
2023-05-08T09:25:08.981Z,20.00
2023-05-08T09:27:36.864Z,19.90
2023-05-08T09:30:07.884Z,20.10
2023-05-08T09:32:37.152Z,19.90
2023-05-08T09:35:06.861Z,20.10
2023-05-08T09:37:37.034Z,19.90
2023-05-08T09:40:16.046Z,20.00
2023-05-08T09:42:44.103Z,20.50
2023-05-08T09:45:28.010Z,19.80
2023-05-08T09:47:56.134Z,20.30
2023-05-08T09:50:24.388Z,20.30
2023-05-08T09:52:52.439Z,20.30
2023-05-08T09:55:20.498Z,20.40
2023-05-08T09:57:57.655Z,20.20
2023-05-08T10:00:28.134Z,20.60
2023-05-08T10:02:57.836Z,20.80
2023-05-08T10:05:27.518Z,21.00
2023-05-08T10:07:56.749Z,20.90
2023-05-08T10:10:27.245Z,21.20
2023-05-08T10:12:56.809Z,21.40
2023-05-08T10:15:31.143Z,21.30
2023-05-08T10:18:05.344Z,21.30
2023-05-08T10:20:34.761Z,21.10
2023-05-08T10:23:04.263Z,21.10
2023-05-08T10:25:34.466Z,21.50
2023-05-08T10:28:11.003Z,21.30
2023-05-08T10:30:45.032Z,21.30
2023-05-08T10:33:17.976Z,21.10
2023-05-08T10:35:46.776Z,21.00
2023-05-08T10:38:17.742Z,21.30
2023-05-08T10:40:46.165Z,20.90
2023-05-08T10:43:14.232Z,20.90
2023-05-08T10:45:43.897Z,21.00
2023-05-08T10:48:21.324Z,21.10
2023-05-08T10:51:01.069Z,21.50
2023-05-08T10:53:35.939Z,21.40
2023-05-08T10:56:04.193Z,21.50
2023-05-08T10:58:33.071Z,21.70
2023-05-08T11:01:16.146Z,21.70
2023-05-08T11:03:50.403Z,21.50
2023-05-08T11:06:19.445Z,21.40
2023-05-08T11:08:54.360Z,21.30
2023-05-08T11:11:27.605Z,21.30
2023-05-08T11:14:00.733Z,21.50
2023-05-08T11:17:07.000Z,21.40
2023-05-08T11:19:35.878Z,21.50
2023-05-08T11:22:34.966Z,21.60
2023-05-08T11:25:05.249Z,21.70
2023-05-08T11:27:38.910Z,22.00
2023-05-08T11:30:37.646Z,21.60
2023-05-08T11:33:34.465Z,21.60
2023-05-08T11:36:13.851Z,21.70
2023-05-08T11:38:43.610Z,21.70
2023-05-08T11:41:21.606Z,21.80
2023-05-08T11:44:20.828Z,21.80
2023-05-08T11:46:53.633Z,21.80
2023-05-08T11:49:28.200Z,21.90
2023-05-08T11:52:00.243Z,21.90
2023-05-08T11:54:31.192Z,22.00
2023-05-08T11:56:59.592Z,22.00
2023-05-08T11:59:27.732Z,22.10
2023-05-08T12:04:27.822Z,21.80
2023-05-08T12:06:59.707Z,22.00
2023-05-08T12:09:27.900Z,22.10
2023-05-08T12:11:58.847Z,22.20
2023-05-08T12:14:26.879Z,22.70
2023-05-08T12:16:54.877Z,22.80
2023-05-08T12:19:22.888Z,23.00
2023-05-08T12:21:52.530Z,22.90
2023-05-08T12:24:23.221Z,23.00
2023-05-08T12:26:54.322Z,23.10
2023-05-08T12:29:22.776Z,23.30
2023-05-08T12:31:50.874Z,23.10
2023-05-08T12:34:19.015Z,23.30
2023-05-08T12:36:46.967Z,23.60
2023-05-08T12:39:18.457Z,23.10
2023-05-08T12:41:49.763Z,23.00
2023-05-08T12:44:21.407Z,23.10
2023-05-08T12:46:51.872Z,22.90
2023-05-08T12:49:28.622Z,22.90
2023-05-08T12:52:06.455Z,23.10
2023-05-08T12:54:39.964Z,23.10
2023-05-08T12:57:12.566Z,23.20
2023-05-08T12:59:40.579Z,23.00
2023-05-08T13:02:14.333Z,23.00
2023-05-08T13:04:42.378Z,22.80
2023-05-08T13:07:10.324Z,22.60
2023-05-08T13:09:39.791Z,22.60
2023-05-08T13:12:08.233Z,22.40
2023-05-08T13:14:36.147Z,22.40
2023-05-08T13:17:03.986Z,22.20
2023-05-08T13:19:31.902Z,22.10
2023-05-08T13:21:59.771Z,22.30
2023-05-08T13:24:27.608Z,22.20
2023-05-08T13:26:56.869Z,21.70
2023-05-08T13:29:24.886Z,22.00
2023-05-08T13:31:53.934Z,21.90
2023-05-08T13:34:21.830Z,22.00
2023-05-08T13:36:50.858Z,21.90
2023-05-08T13:39:18.734Z,21.90
2023-05-08T13:41:47.083Z,22.00
2023-05-08T13:44:16.312Z,21.90
2023-05-08T13:46:44.224Z,21.90
2023-05-08T13:49:12.087Z,22.10
2023-05-08T13:51:39.951Z,22.00
2023-05-08T13:54:07.933Z,22.10
2023-05-08T13:56:35.817Z,22.00
2023-05-08T13:59:03.684Z,21.80
2023-05-08T14:01:32.906Z,22.10
2023-05-08T14:04:01.025Z,22.00
2023-05-08T14:06:29.135Z,22.00
2023-05-08T14:08:57.384Z,22.10
2023-05-08T14:11:25.435Z,22.10
2023-05-08T14:13:53.331Z,22.10
2023-05-08T14:16:21.457Z,22.00
2023-05-08T14:18:51.786Z,22.00
2023-05-08T14:21:19.615Z,22.30
2023-05-08T14:23:47.512Z,22.00
2023-05-08T14:26:15.412Z,22.10
2023-05-08T14:28:43.330Z,22.10
2023-05-08T14:31:11.302Z,21.80
2023-05-08T14:33:39.264Z,21.90
2023-05-08T14:36:09.624Z,21.70
2023-05-08T14:38:37.519Z,21.80
2023-05-08T14:41:05.435Z,21.60
2023-05-08T14:43:33.554Z,21.50
2023-05-08T14:46:01.673Z,21.50
2023-05-08T14:48:29.588Z,21.40
2023-05-08T14:50:57.695Z,21.50
2023-05-08T14:53:27.094Z,21.90
2023-05-08T14:55:55.351Z,21.50
2023-05-08T14:58:23.590Z,21.50
2023-05-08T15:00:51.490Z,21.50
2023-05-08T15:03:19.603Z,21.50
2023-05-08T15:05:48.267Z,21.50
2023-05-08T15:08:16.146Z,21.60
2023-05-08T15:10:45.389Z,21.60
2023-05-08T15:13:13.380Z,21.60
2023-05-08T15:15:41.266Z,21.70
2023-05-08T15:18:09.141Z,21.80
2023-05-08T15:20:37.046Z,21.80
2023-05-08T15:23:04.942Z,21.70
2023-05-08T15:25:32.811Z,21.90
2023-05-08T15:28:02.051Z,21.90
2023-05-08T15:30:29.920Z,22.00
2023-05-08T15:32:57.802Z,21.90
2023-05-08T15:35:25.743Z,21.80
2023-05-08T15:37:53.711Z,21.60
2023-05-08T15:40:21.953Z,21.60
2023-05-08T15:42:49.867Z,21.60
2023-05-08T15:45:19.173Z,21.50
2023-05-08T15:47:47.032Z,21.40
2023-05-08T15:50:15.582Z,21.50
2023-05-08T15:52:43.577Z,21.30
2023-05-08T15:55:12.039Z,21.60
2023-05-08T15:57:40.094Z,21.20
2023-05-08T16:00:09.670Z,21.30
2023-05-08T16:02:39.331Z,21.20
2023-05-08T16:05:07.987Z,21.20
2023-05-08T16:07:35.947Z,21.20
2023-05-08T16:10:05.286Z,21.20
2023-05-08T16:12:34.684Z,21.00
2023-05-08T16:15:02.541Z,20.90
2023-05-08T16:17:30.514Z,21.00
2023-05-08T16:20:00.598Z,20.90
2023-05-08T16:22:28.523Z,20.90
2023-05-08T16:24:56.626Z,21.10
2023-05-08T16:27:24.528Z,20.80
2023-05-08T16:29:52.447Z,20.80
2023-05-08T16:32:20.330Z,20.90
2023-05-08T16:34:48.167Z,20.90
2023-05-08T16:37:17.392Z,20.70
2023-05-08T16:39:45.279Z,20.70
2023-05-08T16:42:13.129Z,20.70
2023-05-08T16:44:41.000Z,20.80
2023-05-08T16:47:08.963Z,20.60
2023-05-08T16:49:36.948Z,20.50
2023-05-08T16:52:04.808Z,20.60
2023-05-08T16:54:34.144Z,20.20
2023-05-08T16:57:02.024Z,20.10
2023-05-08T16:59:29.886Z,20.10
2023-05-08T17:01:57.737Z,20.40
2023-05-08T17:04:25.937Z,20.10
2023-05-08T17:06:53.872Z,20.00
2023-05-08T17:09:21.712Z,19.80
2023-05-08T17:11:50.911Z,20.00
2023-05-08T17:14:18.812Z,20.20
2023-05-08T17:16:47.020Z,19.80
2023-05-08T17:19:14.960Z,20.00
2023-05-08T17:21:42.850Z,19.80
2023-05-08T17:24:10.721Z,19.90
2023-05-08T17:26:38.595Z,19.80
2023-05-08T17:29:07.834Z,19.70
2023-05-08T17:31:35.748Z,19.60
2023-05-08T17:34:03.707Z,19.50
2023-05-08T17:36:31.622Z,19.50
2023-05-08T17:38:59.496Z,19.40
2023-05-08T17:41:27.420Z,19.40
2023-05-08T17:43:55.585Z,19.40
2023-05-08T17:46:24.846Z,19.50
2023-05-08T17:48:52.731Z,19.30
2023-05-08T17:51:20.670Z,19.30
2023-05-08T17:53:48.621Z,19.00
2023-05-08T17:56:20.244Z,18.90
2023-05-08T17:58:48.117Z,19.00
2023-05-08T18:01:16.043Z,18.80
2023-05-08T18:03:46.011Z,18.40
2023-05-08T18:06:16.154Z,18.50
2023-05-08T18:08:44.162Z,18.50
2023-05-08T18:11:18.877Z,18.20
2023-05-08T18:13:46.925Z,18.30
2023-05-08T18:16:16.115Z,18.20
2023-05-08T18:18:45.575Z,18.40
2023-05-08T18:21:13.550Z,17.90
2023-05-08T18:23:41.486Z,17.90
2023-05-08T18:26:09.355Z,18.10
2023-05-08T18:28:37.208Z,18.40
2023-05-08T18:31:05.075Z,17.80
2023-05-08T18:33:32.895Z,18.10
2023-05-08T18:36:02.158Z,17.60
2023-05-08T18:38:29.995Z,17.50
2023-05-08T18:40:57.808Z,17.50
2023-05-08T18:43:25.633Z,17.50
2023-05-08T18:45:53.509Z,17.20
2023-05-08T18:48:21.376Z,17.10
2023-05-08T18:50:49.229Z,17.10
2023-05-08T18:53:18.834Z,17.00
2023-05-08T18:55:46.734Z,17.20
2023-05-08T18:58:14.596Z,17.10
2023-05-08T19:00:42.447Z,16.70
2023-05-08T19:03:10.481Z,16.80
2023-05-08T19:05:38.516Z,17.10
2023-05-08T19:08:06.669Z,16.70
2023-05-08T19:10:35.854Z,16.40
2023-05-08T19:13:03.730Z,16.80
2023-05-08T19:15:31.631Z,16.60
2023-05-08T19:17:59.584Z,16.30
2023-05-08T19:20:27.502Z,16.20
2023-05-08T19:22:55.750Z,16.00
2023-05-08T19:25:23.763Z,15.90
2023-05-08T19:27:52.977Z,16.00
2023-05-08T19:30:20.873Z,15.70
2023-05-08T19:32:48.761Z,16.20
2023-05-08T19:35:16.629Z,16.20
2023-05-08T19:37:44.482Z,15.60
2023-05-08T19:40:13.426Z,16.40
2023-05-08T19:42:43.283Z,15.50
2023-05-08T19:45:13.322Z,15.40
2023-05-08T19:47:41.221Z,15.50
2023-05-08T19:50:12.407Z,15.60
2023-05-08T19:52:40.416Z,15.20
2023-05-08T19:55:09.302Z,15.80
2023-05-08T19:57:37.165Z,15.00
2023-05-08T20:00:05.782Z,15.00
2023-05-08T20:02:35.083Z,15.00
2023-05-08T20:05:21.792Z,15.20
2023-05-08T20:07:50.165Z,14.90
2023-05-08T20:10:18.022Z,15.10
2023-05-08T20:12:45.947Z,15.50
2023-05-08T20:15:14.055Z,14.70
2023-05-08T20:17:43.597Z,14.70
2023-05-08T20:20:12.969Z,14.90
2023-05-08T20:22:41.135Z,14.40
2023-05-08T20:25:10.243Z,14.90
2023-05-08T20:27:38.143Z,14.60
2023-05-08T20:30:07.379Z,14.30
2023-05-08T20:32:35.262Z,14.20
2023-05-08T20:35:04.541Z,14.10
2023-05-08T20:37:32.408Z,14.00
2023-05-08T20:40:01.793Z,13.90
2023-05-08T20:42:30.438Z,13.90
2023-05-08T20:44:58.264Z,13.70
2023-05-08T20:47:26.238Z,13.70
2023-05-08T20:49:54.130Z,13.60
2023-05-08T20:52:23.339Z,13.50
2023-05-08T20:54:51.257Z,14.40
2023-05-08T20:57:19.184Z,13.30
2023-05-08T20:59:47.924Z,13.30
2023-05-08T21:02:15.923Z,13.20
2023-05-08T21:04:43.781Z,13.10
2023-05-08T21:07:11.816Z,13.10
2023-05-08T21:09:41.091Z,13.00
2023-05-08T21:12:09.791Z,12.90
2023-05-08T21:14:37.901Z,12.90
2023-05-08T21:17:05.748Z,12.80
2023-05-08T21:19:33.720Z,12.80
2023-05-08T21:22:01.580Z,12.70
2023-05-08T21:24:29.568Z,12.60
2023-05-08T21:26:59.596Z,12.60
2023-05-08T21:29:27.457Z,12.60
2023-05-08T21:31:55.481Z,12.50
2023-05-08T21:34:23.493Z,12.40
2023-05-08T21:36:51.348Z,13.00
2023-05-08T21:39:19.312Z,12.10
2023-05-08T21:41:47.972Z,13.50
2023-05-08T21:44:17.238Z,12.20
2023-05-08T21:46:45.233Z,12.60
2023-05-08T21:49:13.145Z,12.00
2023-05-08T21:51:41.036Z,11.90
2023-05-08T21:54:10.145Z,13.50
2023-05-08T21:56:38.381Z,12.10
2023-05-08T21:59:08.105Z,12.00
2023-05-08T22:01:37.343Z,12.00
2023-05-08T22:04:05.392Z,11.90
2023-05-08T22:06:33.410Z,12.00
2023-05-08T22:09:01.471Z,11.90
2023-05-08T22:11:31.392Z,11.90
2023-05-08T22:13:59.320Z,11.90
2023-05-08T22:16:27.276Z,11.80
2023-05-08T22:18:56.468Z,11.80
2023-05-08T22:21:24.348Z,11.80
2023-05-08T22:23:52.186Z,11.70
2023-05-08T22:26:20.039Z,11.70
2023-05-08T22:28:47.904Z,12.50
2023-05-08T22:31:15.764Z,11.60
2023-05-08T22:33:43.634Z,12.80
2023-05-08T22:36:12.929Z,11.60
2023-05-08T22:38:41.397Z,11.50
2023-05-08T22:41:10.039Z,11.50
2023-05-08T22:43:38.157Z,11.40
2023-05-08T22:46:07.299Z,11.40
2023-05-08T22:48:36.119Z,11.30
2023-05-08T22:51:04.057Z,12.20
2023-05-08T22:53:33.314Z,11.30
2023-05-08T22:56:01.187Z,11.20
2023-05-08T22:58:29.268Z,11.10
2023-05-08T23:00:57.234Z,11.10
2023-05-08T23:03:25.074Z,11.10
2023-05-08T23:05:52.989Z,11.00
2023-05-08T23:08:22.103Z,11.00
2023-05-08T23:10:51.297Z,11.10
2023-05-08T23:13:19.233Z,10.90
2023-05-08T23:15:47.175Z,10.80
2023-05-08T23:18:15.015Z,10.80
2023-05-08T23:20:42.871Z,10.70
2023-05-08T23:23:10.732Z,10.70
2023-05-08T23:25:38.557Z,10.70
2023-05-08T23:28:07.792Z,12.60
2023-05-08T23:30:35.725Z,10.60
2023-05-08T23:33:03.647Z,10.50
2023-05-08T23:35:31.910Z,10.40
2023-05-08T23:37:59.821Z,10.50
2023-05-08T23:40:27.747Z,10.40
2023-05-08T23:42:56.066Z,10.40
2023-05-08T23:45:25.338Z,10.40
2023-05-08T23:47:53.354Z,10.40
2023-05-08T23:50:21.234Z,10.40
2023-05-08T23:52:49.052Z,10.30
2023-05-08T23:55:17.041Z,10.30
2023-05-08T23:57:44.906Z,10.30
